createdAt,value
2019-03-21T00:32:00.321Z,99.90
2019-03-21T00:34:28.925Z,99.90
2019-03-21T00:36:57.594Z,99.90
2019-03-21T00:39:32.597Z,99.90
2019-03-21T00:41:57.351Z,99.90
2019-03-21T00:44:26.032Z,99.90
2019-03-21T00:46:54.635Z,99.90
2019-03-21T00:49:23.662Z,99.90
2019-03-21T01:24:06.984Z,99.90
2019-03-21T01:26:35.649Z,99.90
2019-03-21T01:29:04.430Z,99.90
2019-03-21T01:31:33.064Z,99.90
2019-03-21T01:34:01.685Z,99.90
2019-03-21T02:45:49.546Z,99.90
2019-03-21T02:51:22.605Z,99.90
2019-03-21T02:53:51.538Z,99.90
2019-03-21T02:56:25.537Z,99.90
2019-03-21T03:43:08.664Z,99.90
2019-03-21T03:45:39.968Z,99.90
2019-03-21T03:48:10.476Z,99.90
2019-03-21T03:50:39.430Z,99.90
2019-03-21T07:25:41.016Z,99.90
2019-03-21T07:28:09.959Z,99.90
2019-03-21T07:30:48.514Z,99.90
2019-03-21T07:33:17.166Z,99.90
2019-03-21T07:35:57.869Z,99.90
2019-03-21T07:41:18.030Z,99.90
2019-03-21T07:43:49.347Z,99.90
2019-03-21T07:46:25.390Z,99.90
2019-03-21T07:48:53.951Z,99.90
2019-03-21T07:51:22.574Z,99.90
2019-03-21T07:53:51.247Z,99.90
2019-03-21T07:56:19.837Z,99.90
2019-03-21T07:58:48.578Z,99.90
2019-03-21T08:01:20.163Z,99.90
2019-03-21T08:21:01.827Z,99.90
2019-03-21T08:23:30.169Z,99.90
2019-03-21T08:25:58.711Z,99.90
2019-03-21T08:28:27.286Z,99.90
2019-03-21T08:31:07.853Z,99.90
2019-03-21T08:33:36.420Z,99.90
2019-03-21T08:36:05.037Z,99.90
2019-03-21T08:38:33.554Z,99.90
2019-03-21T08:41:02.102Z,99.90
2019-03-21T08:43:30.698Z,99.90
2019-03-21T08:45:59.249Z,99.90
2019-03-21T08:48:27.764Z,99.90
2019-03-21T08:51:07.354Z,99.90
2019-03-21T08:53:26.619Z,99.90
2019-03-21T08:55:55.174Z,99.90
2019-03-21T08:58:23.681Z,99.90
2019-03-21T09:00:52.314Z,99.90
2019-03-21T09:03:20.881Z,99.90
2019-03-21T09:05:49.433Z,99.90
2019-03-21T09:08:17.941Z,99.90
2019-03-21T09:10:46.503Z,99.90
2019-03-21T09:13:15.081Z,99.90
2019-03-21T09:15:43.557Z,99.90
2019-03-21T09:18:12.252Z,99.90
2019-03-21T09:20:41.138Z,99.90
2019-03-21T09:23:09.732Z,99.90
2019-03-21T09:25:38.348Z,99.90
2019-03-21T09:28:07.252Z,99.90
2019-03-21T09:30:35.844Z,99.90
2019-03-21T09:33:04.582Z,99.90
2019-03-21T09:35:35.963Z,99.20
2019-03-21T09:38:04.643Z,99.50
2019-03-21T09:40:34.793Z,95.90
2019-03-21T09:43:03.448Z,92.20
2019-03-21T09:45:31.957Z,95.80
2019-03-21T09:48:00.541Z,97.60
2019-03-21T09:50:30.631Z,92.30
2019-03-21T09:52:59.232Z,83.90
2019-03-21T09:55:27.984Z,87.60
2019-03-21T09:57:56.723Z,85.80
2019-03-21T10:00:32.874Z,93.30
2019-03-21T10:03:01.751Z,84.00
2019-03-21T10:05:30.460Z,81.60
2019-03-21T10:07:59.676Z,82.00
2019-03-21T10:10:37.392Z,77.20
2019-03-21T10:13:06.148Z,73.20
2019-03-21T10:15:34.793Z,71.10
2019-03-21T10:18:03.651Z,68.70
2019-03-21T10:20:32.290Z,71.30
2019-03-21T10:23:01.012Z,69.10
2019-03-21T10:25:29.567Z,70.90
2019-03-21T10:27:58.186Z,67.30
2019-03-21T10:30:35.361Z,68.90
2019-03-21T10:33:05.650Z,64.50
2019-03-21T10:35:34.397Z,64.40
2019-03-21T10:38:03.033Z,61.50
2019-03-21T10:40:31.617Z,59.00
2019-03-21T10:43:00.162Z,59.40
2019-03-21T10:45:28.726Z,61.10
2019-03-21T10:47:57.205Z,56.40
2019-03-21T10:50:39.099Z,56.50
2019-03-21T10:53:08.790Z,55.10
2019-03-21T10:55:37.434Z,55.70
2019-03-21T10:58:06.508Z,54.00
2019-03-21T11:00:35.240Z,55.10
2019-03-21T11:03:03.969Z,53.50
2019-03-21T11:05:32.538Z,51.20
2019-03-21T11:08:01.009Z,50.50
2019-03-21T11:10:29.589Z,52.20
2019-03-21T11:12:58.437Z,52.60
2019-03-21T11:15:27.146Z,51.80
2019-03-21T11:17:55.834Z,49.80
2019-03-21T11:20:32.122Z,47.90
2019-03-21T11:23:01.019Z,47.50
2019-03-21T11:25:30.120Z,47.20
2019-03-21T11:27:58.698Z,47.10
2019-03-21T11:30:34.483Z,47.20
2019-03-21T11:33:03.396Z,48.50
2019-03-21T11:35:33.433Z,46.80
2019-03-21T11:38:02.066Z,45.90
2019-03-21T11:40:30.794Z,46.00
2019-03-21T11:42:59.813Z,44.60
2019-03-21T11:45:28.424Z,47.90
2019-03-21T11:47:59.552Z,48.70
2019-03-21T11:50:27.307Z,49.10
2019-03-21T11:52:55.861Z,47.20
2019-03-21T11:55:24.573Z,47.20
2019-03-21T11:57:53.118Z,48.30
2019-03-21T12:00:21.693Z,46.70
2019-03-21T12:02:50.233Z,47.20
2019-03-21T12:05:18.894Z,48.00
2019-03-21T12:07:47.437Z,47.50
2019-03-21T12:10:18.097Z,47.30
2019-03-21T12:12:46.627Z,47.30
2019-03-21T12:15:15.546Z,47.30
2019-03-21T12:17:44.233Z,46.70
2019-03-21T12:20:15.411Z,46.80
2019-03-21T12:22:43.965Z,47.00
2019-03-21T12:25:12.702Z,45.50
2019-03-21T12:27:41.240Z,46.50
2019-03-21T12:30:12.968Z,46.40
2019-03-21T12:32:41.511Z,47.20
2019-03-21T12:35:10.220Z,46.70
2019-03-21T12:37:38.693Z,46.00
2019-03-21T12:40:08.515Z,48.10
2019-03-21T12:42:37.191Z,48.00
2019-03-21T12:45:08.152Z,48.30
2019-03-21T12:47:36.789Z,48.80
2019-03-21T12:50:07.927Z,47.00
2019-03-21T12:55:09.954Z,48.70
2019-03-21T12:57:38.520Z,50.10
2019-03-21T13:00:09.328Z,49.40
2019-03-21T13:02:37.907Z,51.50
2019-03-21T13:05:11.133Z,49.40
2019-03-21T13:08:00.273Z,48.70
2019-03-21T13:10:28.870Z,49.40
2019-03-21T13:12:57.636Z,49.40
2019-03-21T13:15:30.186Z,51.40
2019-03-21T13:17:56.557Z,50.10
2019-03-21T13:20:36.329Z,50.20
2019-03-21T13:22:56.212Z,52.40
2019-03-21T13:25:27.602Z,52.20
2019-03-21T13:27:56.510Z,51.60
2019-03-21T13:30:26.939Z,48.10
2019-03-21T13:33:09.724Z,48.80
2019-03-21T13:35:38.374Z,46.30
2019-03-21T13:38:06.955Z,45.60
2019-03-21T13:40:39.932Z,47.20
2019-03-21T13:46:38.430Z,47.40
2019-03-21T13:49:07.068Z,45.70
2019-03-21T13:51:35.675Z,46.50
2019-03-21T13:54:37.383Z,46.90
2019-03-21T13:57:06.129Z,46.80
2019-03-21T13:59:37.890Z,45.50
2019-03-21T14:02:06.443Z,43.80
2019-03-21T14:04:34.996Z,45.70
2019-03-21T14:07:03.644Z,45.50
2019-03-21T14:09:32.177Z,46.00
2019-03-21T14:12:00.744Z,45.10
2019-03-21T14:14:29.309Z,45.50
2019-03-21T14:16:57.977Z,45.40
2019-03-21T14:19:26.507Z,46.80
2019-03-21T14:22:27.408Z,45.80
2019-03-21T14:24:55.948Z,46.40
2019-03-21T14:27:26.042Z,47.00
2019-03-21T14:30:01.289Z,47.80
2019-03-21T14:32:24.894Z,48.40
2019-03-21T14:34:53.473Z,50.00
2019-03-21T14:37:22.027Z,50.70
2019-03-21T14:39:50.581Z,50.30
2019-03-21T14:48:01.665Z,47.40
2019-03-21T14:50:30.307Z,49.50
2019-03-21T14:52:58.874Z,48.60
2019-03-21T14:55:27.539Z,49.70
2019-03-21T14:57:56.109Z,50.90
2019-03-21T15:00:24.581Z,51.20
2019-03-21T15:02:53.153Z,50.30
2019-03-21T15:05:21.713Z,49.60
2019-03-21T15:07:50.287Z,49.50
2019-03-21T15:10:19.073Z,49.80
2019-03-21T15:12:47.723Z,50.20
2019-03-21T15:15:16.505Z,50.10
2019-03-21T15:17:45.127Z,51.70
2019-03-21T15:20:15.717Z,52.30
2019-03-21T15:22:44.353Z,52.70
2019-03-21T15:25:13.525Z,52.70
2019-03-21T15:27:42.111Z,53.20
2019-03-21T15:30:18.541Z,54.30
2019-03-21T15:32:47.172Z,54.80
2019-03-21T15:35:17.178Z,56.20
2019-03-21T15:37:45.805Z,56.10
2019-03-21T15:40:15.183Z,56.00
2019-03-21T15:42:43.830Z,54.50
2019-03-21T15:45:23.556Z,55.70
2019-03-21T15:47:49.313Z,56.20
2019-03-21T15:50:38.013Z,57.10
2019-03-21T15:53:08.377Z,58.60
2019-03-21T15:55:55.124Z,58.70
2019-03-21T15:58:30.970Z,59.10
2019-03-21T16:01:15.929Z,58.80
2019-03-21T16:04:23.768Z,59.40
2019-03-21T16:07:24.210Z,59.80
2019-03-21T16:11:26.167Z,60.80
2019-03-21T16:12:58.881Z,60.80
2019-03-21T16:15:27.517Z,61.90
2019-03-21T16:17:56.654Z,62.10
2019-03-21T16:20:25.273Z,61.60
2019-03-21T16:22:53.861Z,62.20
2019-03-21T16:25:23.983Z,63.70
2019-03-21T16:27:52.587Z,63.40
2019-03-21T16:30:34.367Z,64.80
2019-03-21T16:32:59.096Z,65.20
2019-03-21T16:35:28.749Z,66.20
2019-03-21T16:37:57.608Z,66.90
2019-03-21T16:40:28.109Z,69.10
2019-03-21T16:42:56.863Z,71.20
2019-03-21T16:45:25.505Z,71.20
2019-03-21T16:47:54.322Z,72.80
2019-03-21T16:50:22.829Z,74.50
2019-03-21T16:52:51.411Z,76.50
2019-03-21T16:55:19.973Z,76.90
2019-03-21T16:57:48.559Z,78.30
2019-03-21T17:00:18.850Z,79.50
2019-03-21T17:02:47.846Z,80.30
2019-03-21T17:05:16.470Z,82.00
2019-03-21T17:07:45.105Z,84.50
2019-03-21T17:10:14.825Z,84.80
2019-03-21T17:12:43.384Z,86.40
2019-03-21T17:15:12.985Z,90.30
2019-03-21T17:17:41.636Z,90.70
2019-03-21T17:20:11.646Z,91.80
2019-03-21T17:22:40.261Z,92.80
2019-03-21T17:25:09.256Z,94.20
2019-03-21T17:27:37.830Z,94.70
2019-03-21T17:30:09.498Z,95.60
2019-03-21T17:32:38.038Z,96.30
2019-03-21T17:35:06.924Z,96.50
2019-03-21T17:37:35.572Z,97.70
2019-03-21T17:40:06.759Z,99.20
2019-03-21T17:42:35.352Z,99.80
2019-03-21T17:45:06.446Z,99.90
2019-03-21T17:47:35.036Z,99.90
2019-03-21T17:50:04.626Z,99.90
2019-03-21T17:52:33.209Z,99.90
2019-03-21T17:55:01.753Z,99.90
2019-03-21T17:57:34.705Z,99.90
2019-03-21T18:00:00.503Z,99.90
2019-03-21T18:02:29.133Z,99.90
2019-03-21T18:04:57.823Z,99.90
2019-03-21T18:07:26.401Z,99.90
2019-03-21T18:09:54.957Z,99.90
2019-03-21T18:12:23.564Z,99.90
2019-03-21T18:14:52.261Z,99.90
2019-03-21T18:17:20.934Z,99.90
2019-03-21T18:19:49.478Z,99.90
2019-03-21T18:22:18.048Z,99.90
2019-03-21T18:24:53.786Z,99.90
2019-03-21T18:27:16.732Z,99.90
2019-03-21T18:29:45.317Z,99.90
2019-03-21T18:32:13.857Z,99.90
2019-03-21T18:34:42.369Z,99.90
2019-03-21T18:37:10.928Z,99.90
2019-03-21T18:39:39.499Z,99.90
2019-03-21T18:42:07.974Z,99.90
2019-03-21T18:44:36.532Z,99.90
2019-03-21T18:47:05.096Z,99.90
2019-03-21T18:49:33.649Z,99.90
2019-03-21T18:52:02.197Z,99.90
2019-03-21T18:54:30.773Z,99.90
2019-03-21T18:56:59.494Z,99.90
2019-03-21T18:59:36.158Z,99.90
2019-03-21T19:02:04.901Z,99.90
2019-03-21T19:04:33.553Z,99.90
2019-03-21T19:07:02.175Z,99.90
2019-03-21T19:09:30.814Z,99.90
2019-03-21T19:11:59.453Z,99.90
2019-03-21T19:14:28.130Z,99.90
2019-03-21T19:16:56.686Z,99.90
2019-03-21T19:19:25.335Z,99.90
2019-03-21T19:21:53.914Z,99.90
2019-03-21T19:24:22.533Z,99.90
2019-03-21T19:26:51.102Z,99.90
2019-03-21T19:29:19.711Z,99.90
2019-03-21T19:31:48.270Z,99.90
2019-03-21T19:34:16.874Z,99.90
2019-03-21T19:36:45.425Z,99.90
2019-03-21T19:39:14.010Z,99.90
2019-03-21T19:41:42.673Z,99.90
2019-03-21T19:44:11.185Z,99.90
2019-03-21T19:46:39.777Z,99.90
2019-03-21T19:49:08.407Z,99.90
2019-03-21T19:51:37.092Z,99.90
2019-03-21T19:54:05.770Z,99.90
2019-03-21T19:56:34.273Z,99.90
2019-03-21T19:59:02.765Z,99.90
2019-03-21T20:01:31.382Z,99.90
2019-03-21T20:03:59.966Z,99.90
2019-03-21T20:06:28.509Z,99.90
2019-03-21T20:08:57.117Z,99.90
2019-03-21T20:11:25.650Z,99.90
2019-03-21T20:13:54.197Z,99.90
2019-03-21T20:16:22.673Z,99.90
2019-03-21T20:18:51.257Z,99.90
2019-03-21T20:21:19.803Z,99.90
2019-03-21T20:23:48.371Z,99.90
2019-03-21T20:26:16.906Z,99.90
2019-03-21T20:31:27.849Z,99.90
2019-03-21T20:33:56.487Z,99.90
2019-03-21T20:36:25.093Z,99.90
2019-03-21T20:38:53.701Z,99.90
2019-03-21T20:41:22.268Z,99.90
2019-03-21T20:43:50.867Z,99.90
2019-03-21T20:46:19.458Z,99.90
2019-03-21T21:49:54.894Z,99.90
2019-03-21T21:52:23.496Z,99.90
2019-03-21T21:54:52.122Z,99.90
2019-03-21T21:57:20.755Z,99.90
2019-03-21T21:59:49.377Z,99.90
2019-03-21T22:02:17.938Z,99.90
2019-03-21T22:04:46.654Z,99.90
2019-03-21T22:07:15.349Z,99.90
2019-03-21T22:09:43.993Z,99.90
2019-03-21T22:12:12.682Z,99.90
2019-03-21T22:14:41.309Z,99.90
2019-03-21T22:17:09.872Z,99.90
2019-03-21T22:19:38.510Z,99.90
2019-03-21T22:22:07.159Z,99.90
2019-03-21T22:24:35.832Z,99.90
2019-03-21T22:27:04.594Z,99.90
2019-03-21T22:29:33.231Z,99.90
2019-03-21T22:32:01.924Z,99.90
2019-03-21T22:34:30.643Z,99.90
2019-03-21T22:36:59.254Z,99.90
2019-03-21T22:39:27.955Z,99.90
2019-03-21T22:41:56.570Z,99.90
2019-03-21T22:44:25.247Z,99.90
2019-03-21T22:46:53.876Z,99.90
2019-03-21T22:49:22.523Z,99.90
2019-03-21T22:51:51.226Z,99.90
2019-03-21T22:54:20.860Z,99.90
2019-03-21T22:56:51.479Z,99.90
2019-03-21T22:59:21.743Z,99.90
2019-03-21T23:01:51.775Z,99.90
2019-03-21T23:04:20.483Z,99.90
2019-03-21T23:06:49.049Z,99.90
2019-03-21T23:09:17.646Z,99.90
2019-03-21T23:11:46.233Z,99.90
2019-03-21T23:14:14.868Z,99.90
2019-03-21T23:16:43.462Z,99.90
2019-03-21T23:19:12.087Z,99.90
2019-03-21T23:21:40.725Z,99.90
2019-03-21T23:24:09.318Z,99.90
2019-03-21T23:26:38.050Z,99.90
2019-03-21T23:29:06.718Z,99.90
2019-03-21T23:31:36.398Z,99.90
2019-03-21T23:34:10.267Z,99.90
2019-03-21T23:36:40.384Z,99.90
2019-03-21T23:39:10.314Z,99.90
2019-03-21T23:41:41.334Z,99.90
2019-03-21T23:44:22.848Z,99.90
2019-03-21T23:47:00.534Z,99.90
2019-03-21T23:49:29.372Z,99.90
2019-03-21T23:52:04.371Z,99.90
2019-03-21T23:57:29.529Z,99.90
2019-03-21T23:59:58.404Z,99.90
